Fabian Garcia SC Data

Date Time Air Temperature Relative Humidity Dewpoint Windchill Heat Index Wind Speed Wind Dir. Rain Solar Radiation Soil Temperature
2m 2m 3m 3m 10cm
US/Mountain F % F F F MPH deg in MJ/m^2 F
max avg avg
2020-09-16 00:05:00 62.3 76.0 54.6 62.3 62.3 1.9 3.5 2.2 240.2 234.7 0.00 0.0000000 72.6
2020-09-16 00:10:00 62.3 74.7 54.2 62.3 62.3 0.0 1.9 0.4 234.2 258.2 0.00 0.0000000 72.6
2020-09-16 00:15:00 62.3 74.5 54.1 62.3 62.3 0.0 0.0 0.0 239.6 0.0 0.00 0.0000000 72.5
2020-09-16 00:20:00 62.6 74.8 54.5 62.6 62.6 0.0 0.0 0.0 248.3 0.0 0.00 0.0000000 72.4
2020-09-16 00:25:00 62.3 75.0 54.3 62.3 62.3 0.0 0.0 0.0 230.6 0.0 0.00 0.0000000 72.4
2020-09-16 00:30:00 62.2 76.5 54.7 62.2 62.2 0.0 0.0 0.0 197.5 0.0 0.00 0.0000000 72.3
2020-09-16 00:35:00 62.0 77.1 54.7 62.0 62.0 0.0 0.0 0.0 174.2 0.0 0.00 0.0000000 72.3
2020-09-16 00:40:00 61.6 77.1 54.4 61.6 61.6 0.0 0.0 0.0 195.3 0.0 0.00 0.0000000 72.2
2020-09-16 00:45:00 61.4 78.2 54.5 61.4 61.4 0.0 0.0 0.0 198.1 0.0 0.00 0.0000000 72.1
2020-09-16 00:50:00 61.4 77.9 54.5 61.4 61.4 0.0 0.0 0.0 215.0 0.0 0.00 0.0000000 72.1
2020-09-16 00:55:00 61.4 78.7 54.8 61.4 61.4 0.0 0.0 0.0 189.1 0.0 0.00 0.0000000 72.1
2020-09-16 01:00:00 61.3 79.3 54.8 61.3 61.3 0.0 0.0 0.0 234.5 0.0 0.00 0.0000000 72.0
2020-09-16 01:05:00 61.0 79.6 54.6 61.0 61.0 0.0 0.0 0.0 213.6 0.0 0.00 0.0000000 71.9
2020-09-16 01:10:00 61.0 79.9 54.8 61.0 61.0 0.0 0.0 0.0 214.6 0.0 0.00 0.0000000 71.9
2020-09-16 01:15:00 60.9 80.0 54.7 60.9 60.9 0.0 0.0 0.0 215.0 0.0 0.00 0.0000000 71.8
2020-09-16 01:20:00 61.0 79.7 54.7 61.0 61.0 0.0 0.0 0.0 212.6 0.0 0.00 0.0000000 71.8
2020-09-16 01:25:00 60.6 79.9 54.4 60.6 60.6 0.0 0.0 0.0 174.4 0.0 0.00 0.0000000 71.8
2020-09-16 01:30:00 60.3 80.4 54.2 60.3 60.3 0.0 0.0 0.0 213.7 0.0 0.00 0.0000000 71.7
2020-09-16 01:35:00 60.5 80.1 54.3 60.5 60.5 0.0 0.0 0.0 261.9 0.0 0.00 0.0000000 71.6
2020-09-16 01:40:00 60.5 80.6 54.5 60.5 60.5 0.0 0.0 0.0 239.8 0.0 0.00 0.0000000 71.6
2020-09-16 01:45:00 60.2 80.6 54.2 60.2 60.2 0.0 0.0 0.0 211.3 0.0 0.00 0.0000000 71.5
2020-09-16 01:50:00 60.4 80.8 54.4 60.4 60.4 0.0 0.0 0.0 207.5 0.0 0.00 0.0000000 71.5
2020-09-16 01:55:00 60.0 81.2 54.3 60.0 60.0 0.0 0.0 0.0 214.2 0.0 0.00 0.0000000 71.4
2020-09-16 02:00:00 60.1 81.4 54.4 60.1 60.1 0.0 0.0 0.0 229.9 0.0 0.00 0.0000000 71.4
2020-09-16 02:05:00 59.7 82.1 54.2 59.7 59.7 0.0 0.0 0.0 189.9 0.0 0.00 0.0000000 71.3
2020-09-16 02:10:00 60.0 81.7 54.4 60.0 60.0 0.0 0.0 0.0 186.1 0.0 0.00 0.0000000 71.3
2020-09-16 02:15:00 59.6 82.0 54.1 59.6 59.6 0.0 0.0 0.0 212.8 0.0 0.00 0.0000000 71.2
2020-09-16 02:20:00 59.4 82.9 54.2 59.4 59.4 1.7 2.1 0.7 236.9 237.8 0.00 0.0000000 71.2
2020-09-16 02:25:00 59.6 83.1 54.5 59.6 59.6 1.7 2.2 1.7 231.3 239.8 0.00 0.0000000 71.2
2020-09-16 02:30:00 60.0 83.4 54.9 60.0 60.0 1.5 1.9 1.4 216.7 224.9 0.00 0.0000000 71.1
2020-09-16 02:35:00 59.8 83.8 54.9 59.8 59.8 0.0 1.3 0.2 214.9 217.2 0.00 0.0000000 71.1
2020-09-16 02:40:00 59.5 84.6 54.8 59.5 59.5 0.0 0.0 0.0 187.3 0.0 0.00 0.0000000 71.0
2020-09-16 02:45:00 59.3 84.4 54.6 59.3 59.3 0.0 0.0 0.0 189.2 0.0 0.00 0.0000000 71.0
2020-09-16 02:50:00 59.1 86.6 55.1 59.1 59.1 0.0 0.0 0.0 155.8 0.0 0.00 0.0000000 70.9
2020-09-16 02:55:00 58.5 87.4 54.8 58.5 58.5 0.0 0.0 0.0 154.1 0.0 0.00 0.0000000 70.9
2020-09-16 03:00:00 58.5 88.5 55.1 58.5 58.5 0.0 0.0 0.0 342.4 0.0 0.00 0.0000000 70.8
2020-09-16 03:05:00 58.5 87.9 54.9 58.5 58.5 0.0 0.0 0.0 173.9 0.0 0.00 0.0000000 70.8
2020-09-16 03:10:00 58.8 88.4 55.4 58.8 58.8 0.0 0.0 0.0 195.3 0.0 0.00 0.0000000 70.7
2020-09-16 03:15:00 58.5 88.0 54.9 58.5 58.5 0.0 1.3 0.2 200.0 164.3 0.00 0.0000000 70.7
2020-09-16 03:20:00 58.4 88.6 55.1 58.4 58.4 0.0 0.0 0.0 176.0 0.0 0.00 0.0000000 70.6
2020-09-16 03:25:00 58.2 90.2 55.3 58.2 58.2 0.0 0.0 0.0 231.6 0.0 0.00 0.0000000 70.6
2020-09-16 03:30:00 58.0 91.1 55.5 58.0 58.0 0.0 0.0 0.0 200.1 0.0 0.00 0.0000000 70.5
2020-09-16 03:35:00 58.2 90.7 55.5 58.2 58.2 0.0 0.0 0.0 191.8 0.0 0.00 0.0000000 70.5
2020-09-16 03:40:00 58.2 91.0 55.6 58.2 58.2 0.0 0.0 0.0 159.6 0.0 0.00 0.0000000 70.4
2020-09-16 03:45:00 57.7 91.6 55.3 57.7 57.7 0.0 0.0 0.0 36.7 0.0 0.00 0.0000000 70.4
2020-09-16 03:50:00 58.0 91.5 55.6 58.0 58.0 0.0 0.0 0.0 337.2 0.0 0.00 0.0000020 70.4
2020-09-16 03:55:00 58.1 91.2 55.5 58.1 58.1 0.0 0.0 0.0 346.5 0.0 0.00 0.0000000 70.3
2020-09-16 04:00:00 57.9 91.1 55.3 57.9 57.9 0.0 0.0 0.0 205.4 0.0 0.00 0.0000000 70.3
2020-09-16 04:05:00 58.1 91.2 55.5 58.1 58.1 0.0 0.0 0.0 205.6 0.0 0.00 0.0000000 70.2
2020-09-16 04:10:00 57.7 91.3 55.2 57.7 57.7 0.0 0.0 0.0 168.4 0.0 0.00 0.0000000 70.2
2020-09-16 04:15:00 57.6 91.3 55.0 57.6 57.6 0.0 0.0 0.0 320.8 0.0 0.00 0.0000000 70.1
2020-09-16 04:20:00 57.7 91.8 55.3 57.7 57.7 0.0 0.0 0.0 180.6 0.0 0.00 0.0000000 70.1
2020-09-16 04:25:00 57.9 91.3 55.3 57.9 57.9 0.0 0.0 0.0 198.6 0.0 0.00 0.0000000 70.1
2020-09-16 04:30:00 57.9 91.6 55.5 57.9 57.9 0.0 0.0 0.0 223.9 0.0 0.00 0.0000000 70.0
2020-09-16 04:35:00 57.7 92.1 55.4 57.7 57.7 0.0 0.0 0.0 215.7 0.0 0.00 0.0000000 70.0
2020-09-16 04:40:00 57.7 91.8 55.4 57.7 57.7 0.0 0.0 0.0 229.7 0.0 0.00 0.0000000 69.9
2020-09-16 04:45:00 57.6 92.0 55.3 57.6 57.6 0.0 2.6 0.9 262.2 231.7 0.00 0.0000000 69.9
2020-09-16 04:50:00 57.6 92.0 55.3 57.6 57.6 0.0 0.0 0.0 232.1 0.0 0.00 0.0000000 69.8
2020-09-16 04:55:00 57.4 91.5 55.0 57.4 57.4 0.0 0.0 0.0 167.8 0.0 0.00 0.0000000 69.8
2020-09-16 05:00:00 57.4 92.2 55.1 57.4 57.4 0.0 0.0 0.0 216.5 0.0 0.00 0.0000000 69.8
2020-09-16 05:05:00 57.1 92.9 55.1 57.1 57.1 0.0 0.0 0.0 212.1 0.0 0.00 0.0000000 69.7
2020-09-16 05:10:00 57.0 91.9 54.7 57.0 57.0 0.0 0.0 0.0 202.9 0.0 0.00 0.0000000 69.7
2020-09-16 05:15:00 56.9 93.1 55.0 56.9 56.9 0.0 0.0 0.0 225.2 0.0 0.00 0.0000000 69.7
2020-09-16 05:20:00 57.1 94.3 55.5 57.1 57.1 0.0 0.0 0.0 248.1 0.0 0.00 0.0000000 69.6
2020-09-16 05:25:00 57.3 93.7 55.5 57.3 57.3 0.0 0.0 0.0 237.9 0.0 0.00 0.0000000 69.6
2020-09-16 05:30:00 56.9 93.9 55.2 56.9 56.9 0.0 0.0 0.0 260.2 0.0 0.00 0.0000000 69.5
2020-09-16 05:35:00 57.1 92.4 54.9 57.1 57.1 0.0 0.0 0.0 223.4 0.0 0.00 0.0000020 69.5
2020-09-16 05:40:00 57.0 91.9 54.7 57.0 57.0 0.0 0.0 0.0 236.1 0.0 0.00 0.0000000 69.4
2020-09-16 05:45:00 57.1 92.1 54.8 57.1 57.1 0.0 0.0 0.0 239.1 0.0 0.00 0.0000000 69.4
2020-09-16 05:50:00 57.0 90.9 54.4 57.0 57.0 0.0 0.0 0.0 256.0 0.0 0.00 0.0000000 69.4
2020-09-16 05:55:00 56.9 91.7 54.5 56.9 56.9 0.0 0.0 0.0 265.2 0.0 0.00 0.0000000 69.4
2020-09-16 06:00:00 56.9 91.9 54.6 56.9 56.9 0.0 0.0 0.0 258.7 0.0 0.00 0.0000000 69.3
2020-09-16 06:05:00 56.6 92.3 54.4 56.6 56.6 0.0 0.0 0.0 223.1 0.0 0.00 0.0000000 69.3
2020-09-16 06:10:00 56.5 92.5 54.3 56.5 56.5 0.0 0.0 0.0 238.5 0.0 0.00 0.0000020 69.2
2020-09-16 06:15:00 56.4 93.5 54.5 56.4 56.4 0.0 0.0 0.0 235.4 0.0 0.00 0.0000000 69.2
2020-09-16 06:20:00 56.4 93.2 54.4 56.4 56.4 0.0 0.0 0.0 241.9 0.0 0.00 0.0000000 69.1
2020-09-16 06:25:00 56.5 92.7 54.4 56.5 56.5 0.0 0.0 0.0 213.3 0.0 0.00 0.0000000 69.1
2020-09-16 06:30:00 56.2 92.8 54.1 56.2 56.2 0.0 0.0 0.0 201.2 0.0 0.00 0.0000020 69.1
2020-09-16 06:35:00 56.2 92.7 54.1 56.2 56.2 0.0 0.0 0.0 233.5 0.0 0.00 0.0000404 69.0
2020-09-16 06:40:00 56.2 92.8 54.2 56.2 56.2 0.0 0.0 0.0 227.1 0.0 0.00 0.0001273 69.0
2020-09-16 06:45:00 56.0 92.8 53.9 56.0 56.0 0.0 0.0 0.0 223.5 0.0 0.00 0.0003275 69.0
2020-09-16 06:50:00 56.2 92.7 54.1 56.2 56.2 0.0 0.0 0.0 221.9 0.0 0.00 0.0006468 68.9
2020-09-16 06:55:00 56.1 92.3 53.9 56.1 56.1 0.0 0.0 0.0 236.7 0.0 0.00 0.0012230 68.9
2020-09-16 07:00:00 56.0 91.4 53.5 56.0 56.0 0.0 0.0 0.0 211.8 0.0 0.00 0.0021892 68.8
2020-09-16 07:05:00 56.1 92.4 53.9 56.1 56.1 0.0 0.0 0.0 200.5 0.0 0.00 0.0034344 68.8
2020-09-16 07:10:00 55.9 92.1 53.6 55.9 55.9 0.0 0.0 0.0 160.6 0.0 0.00 0.0062119 68.8
2020-09-16 07:15:00 56.2 91.2 53.6 56.2 56.2 0.0 0.0 0.0 233.9 0.0 0.00 0.0096100 68.8
2020-09-16 07:20:00 56.8 90.6 54.1 56.8 56.8 0.0 0.0 0.0 213.7 0.0 0.00 0.0135759 68.7
2020-09-16 07:25:00 57.1 89.1 53.9 57.1 57.1 0.0 0.0 0.0 200.4 0.0 0.00 0.0184680 68.7
2020-09-16 07:30:00 57.6 88.5 54.2 57.6 57.6 0.0 0.0 0.0 244.6 0.0 0.00 0.0234372 68.6
2020-09-16 07:35:00 58.4 86.8 54.4 58.4 58.4 0.0 0.0 0.0 216.3 0.0 0.00 0.0288017 68.6
2020-09-16 07:40:00 59.0 85.2 54.5 59.0 59.0 0.0 0.0 0.0 201.2 0.0 0.00 0.0339221 68.6
2020-09-16 07:45:00 60.0 80.1 53.8 60.0 60.0 0.0 0.0 0.0 172.1 0.0 0.00 0.0385229 68.6
2020-09-16 07:50:00 61.3 72.2 52.3 61.3 61.3 3.0 3.5 1.7 338.2 342.1 0.00 0.0430600 68.5
2020-09-16 07:55:00 62.2 69.5 52.1 62.2 62.2 2.2 3.3 2.6 2.3 342.0 0.00 0.0476902 68.5
2020-09-16 08:00:00 63.2 68.6 52.7 63.2 63.2 1.9 3.1 1.9 294.0 340.2 0.00 0.0526287 68.5
2020-09-16 08:05:00 63.6 67.6 52.7 63.6 63.6 1.7 3.5 2.5 20.5 358.5 0.00 0.0578332 68.4
2020-09-16 08:10:00 64.3 66.1 52.7 64.3 64.3 2.8 3.3 2.4 339.8 348.9 0.00 0.0629498 68.4
2020-09-16 08:15:00 65.2 62.7 52.2 65.2 65.2 0.8 2.4 1.5 17.3 4.9 0.00 0.0681292 68.4
2020-09-16 08:20:00 66.3 61.5 52.7 66.3 66.3 0.0 1.0 0.1 22.5 23.2 0.00 0.0733613 68.4
2020-09-16 08:25:00 66.9 61.4 53.2 66.9 66.9 0.0 0.8 0.0 261.6 314.4 0.00 0.0785761 68.4
2020-09-16 08:30:00 66.8 62.5 53.5 66.8 66.8 0.0 0.8 0.0 248.1 284.6 0.00 0.0836564 68.4
2020-09-16 08:35:00 66.6 64.3 54.2 66.6 66.6 0.0 0.0 0.0 218.0 0.0 0.00 0.0888374 68.4
2020-09-16 08:40:00 67.4 59.7 52.9 67.4 67.4 0.0 0.0 0.0 249.5 0.0 0.00 0.0941754 68.4
2020-09-16 08:45:00 68.3 59.2 53.5 68.3 68.3 1.5 1.5 0.1 14.0 7.1 0.00 0.0995063 68.4
2020-09-16 08:50:00 68.8 57.8 53.3 68.8 68.8 1.7 2.2 1.1 276.9 287.6 0.00 0.1046742 68.3
2020-09-16 08:55:00 69.2 59.4 54.4 69.2 69.2 2.4 2.4 0.8 216.1 245.2 0.00 0.1100446 68.3
2020-09-16 09:00:00 68.8 58.9 53.8 68.8 68.8 2.2 3.0 2.0 237.1 227.6 0.00 0.1151512 68.3
2020-09-16 09:05:00 69.0 57.4 53.3 69.0 69.0 3.0 3.3 1.8 245.4 261.9 0.00 0.1199534 68.3
2020-09-16 09:10:00 69.3 56.6 53.2 69.3 69.3 2.2 3.3 2.2 249.8 233.7 0.00 0.1249409 68.3
2020-09-16 09:15:00 69.8 56.5 53.7 69.8 69.8 2.4 3.0 1.9 301.8 278.7 0.00 0.1299464 68.4
2020-09-16 09:20:00 70.3 57.9 54.8 70.3 70.3 1.9 3.7 2.5 293.4 274.6 0.00 0.1350672 68.4
2020-09-16 09:25:00 71.0 56.6 54.8 71.0 71.0 2.4 3.3 1.5 239.0 263.9 0.00 0.1397981 68.4
2020-09-16 09:30:00 71.4 56.9 55.3 71.4 71.4 1.5 3.7 2.2 279.2 271.3 0.00 0.1444655 68.4
2020-09-16 09:35:00 71.8 58.2 56.4 71.8 71.8 2.6 3.3 2.6 206.0 262.3 0.00 0.1489296 68.4
2020-09-16 09:40:00 72.5 57.1 56.4 72.5 72.5 2.8 3.3 1.7 252.7 214.4 0.00 0.1536641 68.5
2020-09-16 09:45:00 73.7 56.5 57.3 73.7 73.7 2.8 3.7 1.8 141.4 195.5 0.00 0.1583389 68.5
2020-09-16 09:50:00 74.8 55.2 57.6 74.8 74.8 2.6 4.2 2.6 138.7 178.5 0.00 0.1630357 68.5
2020-09-16 09:55:00 75.3 54.0 57.5 75.3 75.3 3.5 3.8 2.8 121.6 144.6 0.00 0.1673191 68.5
2020-09-16 10:00:00 74.7 56.3 58.1 74.7 74.7 3.1 5.5 3.7 258.9 222.6 0.00 0.1717832 68.6
2020-09-16 10:05:00 74.3 57.2 58.2 74.3 74.3 2.6 6.0 3.4 236.0 223.0 0.00 0.1762422 68.6
2020-09-16 10:10:00 74.8 55.8 58.0 74.8 74.8 1.7 3.3 2.5 47.9 216.4 0.00 0.1804746 68.6
2020-09-16 10:15:00 75.8 55.8 58.9 75.8 75.8 1.3 4.7 2.0 178.7 175.7 0.00 0.1846399 68.7
2020-09-16 10:20:00 76.8 51.7 57.7 76.8 76.8 2.8 3.8 2.0 204.8 177.9 0.00 0.1885066 68.8
2020-09-16 10:25:00 76.8 54.4 59.1 76.8 76.8 4.4 5.5 3.2 251.4 211.5 0.00 0.1920142 68.9
2020-09-16 10:30:00 76.7 52.0 57.8 76.7 76.7 2.2 4.7 3.0 161.7 222.7 0.00 0.1955137 68.9
2020-09-16 10:35:00 76.5 53.3 58.3 76.5 76.5 1.0 3.3 2.7 251.9 234.2 0.00 0.1988522 69.0
2020-09-16 10:40:00 77.0 52.2 58.2 77.0 77.0 3.5 4.7 2.1 287.5 259.1 0.00 0.2025062 69.1
2020-09-16 10:45:00 77.1 52.3 58.3 77.1 77.1 3.5 4.9 3.8 242.7 239.4 0.00 0.2058950 69.1
2020-09-16 10:50:00 77.7 49.4 57.3 77.7 77.7 3.3 5.3 2.9 225.0 224.4 0.00 0.2091687 69.2
2020-09-16 10:55:00 79.0 48.6 58.0 79.0 79.0 1.3 3.1 2.2 251.5 170.7 0.00 0.2125947 69.3
2020-09-16 11:00:00 78.2 51.9 59.1 78.2 78.2 4.0 5.6 3.4 240.2 227.9 0.00 0.2160133 69.4
2020-09-16 11:05:00 78.3 47.1 56.4 78.3 78.3 0.0 4.4 2.1 255.8 234.4 0.00 0.2194579 69.5
2020-09-16 11:10:00 79.5 48.3 58.3 79.5 79.5 2.1 6.7 3.0 220.2 214.1 0.00 0.2218549 69.6
2020-09-16 11:15:00 78.6 43.0 54.2 78.6 78.6 3.0 3.8 2.3 193.1 266.3 0.00 0.2254949 69.7
2020-09-16 11:20:00 79.3 45.5 56.4 79.3 79.3 2.8 4.6 3.0 270.7 255.3 0.00 0.2285522 69.8
2020-09-16 11:25:00 79.6 43.8 55.6 79.6 79.6 1.9 5.1 2.9 313.7 248.2 0.00 0.2307884 69.9
2020-09-16 11:30:00 80.2 44.9 56.9 80.2 80.5 4.7 5.6 2.9 297.9 277.0 0.00 0.2337211 70.0
2020-09-16 11:35:00 80.8 45.3 57.7 80.8 81.0 1.0 4.6 3.0 163.7 337.7 0.00 0.2358839 70.1
2020-09-16 11:40:00 80.7 42.0 55.5 80.7 80.6 4.9 7.6 4.5 204.2 203.1 0.00 0.2383014 70.2
2020-09-16 11:45:00 81.2 41.4 55.6 81.2 80.9 4.4 6.0 3.4 194.4 191.3 0.00 0.2404147 70.3
2020-09-16 11:50:00 82.0 40.5 55.6 82.0 81.5 0.8 5.5 2.7 49.3 181.7 0.00 0.2418154 70.4
2020-09-16 11:55:00 82.4 41.3 56.5 82.4 81.9 1.3 4.2 2.4 71.0 354.2 0.00 0.2435574 70.6
2020-09-16 12:00:00 82.1 39.8 55.3 82.1 82.1 6.9 7.8 3.8 272.1 251.1 0.00 0.2464503 70.7
2020-09-16 12:05:00 81.4 37.3 52.9 81.4 81.4 3.8 6.5 4.7 228.3 251.5 0.00 0.2480009 70.8
2020-09-16 12:10:00 81.6 36.2 52.2 81.6 81.6 3.0 4.2 3.2 197.1 245.4 0.00 0.2487815 71.0
2020-09-16 12:15:00 82.4 35.1 52.1 82.4 82.4 2.4 4.6 2.7 90.9 127.1 0.00 0.2497527 71.1
2020-09-16 12:20:00 83.4 33.9 52.0 83.4 83.4 4.7 8.0 3.2 1.4 7.0 0.00 0.2506526 71.3
2020-09-16 12:25:00 83.3 33.1 51.3 83.3 83.3 4.2 6.9 4.4 3.3 4.6 0.00 0.2526842 71.4
2020-09-16 12:30:00 84.5 31.4 50.9 84.5 84.5 1.3 4.9 3.0 341.1 27.5 0.00 0.2530576 71.6
2020-09-16 12:35:00 84.7 29.1 49.0 84.7 84.7 4.4 5.1 3.5 307.9 358.3 0.00 0.2529892 71.8
2020-09-16 12:40:00 84.6 29.5 49.3 84.6 84.6 6.3 6.3 4.5 268.4 356.6 0.00 0.2541499 71.9
2020-09-16 12:45:00 84.3 29.1 48.6 84.3 84.3 4.2 6.5 4.8 19.9 351.0 0.00 0.2542849 72.1
2020-09-16 12:50:00 84.7 30.7 50.4 84.7 84.7 2.2 5.8 2.4 37.2 2.2 0.00 0.2552291 72.2
2020-09-16 12:55:00 85.6 26.3 47.1 85.6 85.6 4.4 4.9 3.0 220.4 6.8 0.00 0.2557685 72.3
2020-09-16 13:00:00 85.0 28.7 48.9 85.0 85.0 3.5 6.9 4.3 229.4 253.8 0.00 0.2558122 72.4
2020-09-16 13:05:00 84.9 27.8 48.0 84.9 84.9 0.8 5.5 3.0 149.5 240.2 0.00 0.2562132 72.5
2020-09-16 13:10:00 85.5 26.2 46.9 85.5 85.5 2.8 6.0 3.4 155.6 215.4 0.00 0.2558911 72.6
2020-09-16 13:15:00 85.7 25.7 46.6 85.7 85.7 1.3 3.5 1.9 297.4 202.3 0.00 0.2562256 72.7
2020-09-16 13:20:00 85.8 24.6 45.5 85.8 85.8 2.6 6.7 3.3 11.3 209.6 0.00 0.2560961 72.7
2020-09-16 13:25:00 85.7 25.7 46.6 85.7 85.7 7.8 10.3 5.7 10.6 347.6 0.00 0.2558143 72.8
2020-09-16 13:30:00 86.0 25.6 46.7 86.0 86.0 1.2 9.7 5.1 103.6 21.4 0.00 0.2549472 72.8
2020-09-16 13:35:00 87.3 24.6 46.7 87.3 87.3 6.2 7.6 3.6 48.5 84.5 0.00 0.2550900 72.9
2020-09-16 13:40:00 86.8 25.4 47.2 86.8 86.8 3.8 8.0 4.4 342.5 7.8 0.00 0.2556976 73.0
2020-09-16 13:45:00 87.7 22.9 45.2 87.7 87.7 1.5 6.7 4.4 10.0 351.2 0.00 0.2559501 73.0
2020-09-16 13:50:00 88.7 22.0 45.0 88.7 88.7 5.6 6.0 3.5 322.5 315.5 0.00 0.2563930 73.1
2020-09-16 13:55:00 87.0 22.8 44.5 87.0 87.0 6.2 9.2 6.2 27.2 30.8 0.00 0.2563961 73.2
2020-09-16 14:00:00 86.9 22.7 44.3 86.9 86.9 7.1 10.5 7.2 329.2 350.3 0.00 0.2553954 73.4
2020-09-16 14:05:00 87.1 23.2 45.0 87.1 87.1 3.5 6.5 4.2 89.0 54.0 0.00 0.2541936 73.5
2020-09-16 14:10:00 87.7 22.7 44.9 87.7 87.7 3.8 4.9 3.2 192.4 211.5 0.00 0.2525734 73.7
2020-09-16 14:15:00 88.5 22.1 44.9 88.5 88.5 7.4 8.0 3.0 329.1 155.7 0.00 0.2536688 73.9
2020-09-16 14:20:00 88.0 22.8 45.4 88.0 88.0 6.2 7.4 4.7 63.9 33.1 0.00 0.2548420 74.0
2020-09-16 14:25:00 87.9 22.6 45.1 87.9 87.9 4.0 12.6 6.7 57.2 14.3 0.00 0.2560730 74.2
2020-09-16 14:30:00 88.3 24.1 47.0 88.3 88.3 6.3 8.7 3.6 267.9 4.2 0.00 0.2581539 74.4
2020-09-16 14:35:00 87.4 23.1 45.1 87.4 87.4 1.7 8.5 4.7 261.1 252.9 0.00 0.2617106 74.6
2020-09-16 14:40:00 88.7 24.2 47.5 88.7 88.7 9.4 9.4 3.4 246.9 258.3 0.00 0.2644534 74.8
2020-09-16 14:45:00 88.1 23.9 46.7 88.1 88.1 4.6 9.4 6.5 242.9 256.6 0.00 0.2623806 75.0
2020-09-16 14:50:00 88.5 22.5 45.4 88.5 88.5 6.9 16.0 7.3 55.3 340.5 0.00 0.2578064 75.2
2020-09-16 14:55:00 88.6 23.5 46.7 88.6 88.6 8.0 13.9 8.7 5.9 1.3 0.00 0.2240525 75.3
2020-09-16 15:00:00 88.2 23.6 46.4 88.2 88.2 6.3 10.6 7.2 12.3 339.1 0.00 0.1175017 75.5
2020-09-16 15:05:00 89.2 22.8 46.3 89.2 89.2 4.6 11.0 7.2 309.6 344.0 0.00 0.2792644 75.7
2020-09-16 15:10:00 90.1 21.1 45.1 90.1 90.1 4.4 6.9 4.1 342.8 302.7 0.00 0.2668311 75.9
2020-09-16 15:15:00 89.6 21.8 45.5 89.6 89.6 6.5 14.7 7.4 18.5 4.0 0.00 0.2663291 76.0
2020-09-16 15:20:00 89.9 21.9 45.8 89.9 89.9 5.5 6.7 3.5 44.1 0.8 0.00 0.2349442 76.2
2020-09-16 15:25:00 88.4 22.7 45.6 88.4 88.4 2.8 9.9 5.0 54.9 78.4 0.00 0.1254619 76.4
2020-09-16 15:30:00 89.0 18.2 40.3 89.0 89.0 6.0 7.4 4.8 124.1 125.5 0.00 0.1501613 76.5
2020-09-16 15:35:00 88.8 19.1 41.3 88.8 88.8 2.4 7.4 4.7 153.5 134.3 0.00 0.1956259 76.7
2020-09-16 15:40:00 89.0 20.4 43.2 89.0 89.0 3.5 7.2 4.5 87.9 139.4 0.00 0.2299626 76.8
2020-09-16 15:45:00 89.0 20.1 42.8 89.0 89.0 2.8 6.7 4.1 157.4 112.0 0.00 0.2162847 77.0
2020-09-16 15:50:00 89.2 21.6 45.0 89.2 89.2 4.6 6.2 3.8 213.7 181.3 0.00 0.2246836 77.1
2020-09-16 15:55:00 88.7 21.8 44.7 88.7 88.7 5.8 6.2 4.3 56.8 218.1 0.00 0.1955347 77.3
2020-09-16 16:00:00 88.5 21.9 44.7 88.5 88.5 5.8 5.8 3.4 37.4 98.8 0.00 0.1704194 77.4
2020-09-16 16:05:00 89.4 20.6 43.8 89.4 89.4 5.3 5.5 3.4 182.4 108.2 0.00 0.1748539 77.5
2020-09-16 16:10:00 88.2 23.7 46.5 88.2 88.2 6.7 8.0 6.1 243.3 216.3 0.00 0.1200136 77.7
2020-09-16 16:15:00 87.5 22.2 44.2 87.5 87.5 3.7 8.0 4.4 179.0 184.1 0.00 0.0659709 77.8
2020-09-16 16:20:00 87.7 21.5 43.6 87.7 87.7 6.0 10.6 4.8 95.0 112.2 0.00 0.0605543 77.9
2020-09-16 16:25:00 86.1 19.1 39.1 86.1 86.1 5.6 13.0 6.8 76.1 109.9 0.00 0.0660150 78.0
2020-09-16 16:30:00 86.8 17.9 38.1 86.8 86.8 3.5 8.8 4.9 123.0 119.9 0.00 0.1063379 78.1
2020-09-16 16:35:00 87.8 17.2 37.9 87.8 87.8 3.0 6.5 4.1 80.3 109.6 0.00 0.1504540 78.2
2020-09-16 16:40:00 89.1 17.5 39.4 89.1 89.1 2.2 4.7 2.9 101.1 122.5 0.00 0.1698224 78.2
2020-09-16 16:45:00 89.3 17.4 39.3 89.3 89.3 2.8 4.4 2.9 170.2 163.2 0.00 0.1342562 78.3
2020-09-16 16:50:00 89.7 18.2 40.9 89.7 89.7 0.8 3.3 1.7 236.0 168.6 0.00 0.1476483 78.4
2020-09-16 16:55:00 90.4 17.8 40.9 90.4 90.4 2.6 2.8 1.3 292.0 299.3 0.00 0.1469745 78.4
2020-09-16 17:00:00 89.3 18.3 40.7 89.3 89.3 3.7 4.7 3.5 170.2 218.9 0.00 0.1419996 78.4
2020-09-16 17:05:00 89.7 19.1 42.0 89.7 89.7 4.4 4.4 2.6 217.2 181.3 0.00 0.1332292 78.5
2020-09-16 17:10:00 88.3 19.7 41.8 88.3 88.3 3.3 6.2 5.0 222.9 213.5 0.00 0.1236788 78.5
2020-09-16 17:15:00 88.8 20.0 42.6 88.8 88.8 3.1 5.1 3.7 226.7 202.3 0.00 0.1161736 78.6
2020-09-16 17:20:00 89.2 19.2 41.8 89.2 89.2 2.1 4.0 3.0 153.0 183.2 0.00 0.1102031 78.6
2020-09-16 17:25:00 89.9 20.9 44.7 89.9 89.9 1.5 3.1 1.8 224.1 211.9 0.00 0.1029311 78.7
2020-09-16 17:30:00 89.3 18.9 41.5 89.3 89.3 3.5 4.9 2.8 261.2 224.5 0.00 0.0955701 78.7
2020-09-16 17:35:00 88.9 20.7 43.5 88.9 88.9 4.9 5.6 3.0 187.8 239.5 0.00 0.0880935 78.7
2020-09-16 17:40:00 89.4 20.0 43.0 89.4 89.4 2.8 4.4 2.9 169.8 186.3 0.00 0.0830118 78.8
2020-09-16 17:45:00 90.0 18.9 42.0 90.0 90.0 1.7 3.0 1.6 186.2 178.4 0.00 0.0781898 78.8
2020-09-16 17:50:00 90.0 18.9 42.1 90.0 90.0 3.0 3.5 1.9 206.8 188.9 0.00 0.0727062 78.8
2020-09-16 17:55:00 89.8 19.6 42.8 89.8 89.8 0.0 3.7 2.1 165.8 200.0 0.00 0.0673690 78.8
2020-09-16 18:00:00 89.6 18.5 41.2 89.6 89.6 0.0 2.6 1.5 234.7 106.6 0.00 0.0619206 78.8
2020-09-16 18:05:00 89.3 16.6 38.1 89.3 89.3 19.4 19.4 4.7 334.3 337.9 0.00 0.0516055 78.8
2020-09-16 18:10:00 88.7 16.1 37.0 88.7 88.7 11.3 21.4 13.0 71.6 3.3 0.00 0.0416354 78.8
2020-09-16 18:15:00 88.4 17.0 38.0 88.4 88.4 8.7 16.5 10.4 40.9 44.0 0.00 0.0392218 78.8
2020-09-16 18:20:00 88.2 17.1 38.0 88.2 88.2 4.2 13.0 9.0 18.0 35.8 0.00 0.0359485 78.8
2020-09-16 18:25:00 88.2 16.3 36.8 88.2 88.2 9.9 11.3 7.4 61.1 36.8 0.00 0.0354453 78.8
2020-09-16 18:30:00 88.0 16.1 36.3 88.0 88.0 7.4 10.6 8.0 38.6 31.1 0.00 0.0267617 78.8
2020-09-16 18:35:00 87.9 16.4 36.7 87.9 87.9 9.2 12.2 7.8 18.3 27.8 0.00 0.0202833 78.8
2020-09-16 18:40:00 87.7 16.4 36.6 87.7 87.7 8.0 13.0 8.2 36.2 40.9 0.00 0.0196030 78.7
2020-09-16 18:45:00 87.6 15.9 35.8 87.6 87.6 7.2 11.2 7.7 10.2 24.9 0.00 0.0118109 78.7
2020-09-16 18:50:00 87.4 16.5 36.5 87.4 87.4 6.5 10.1 6.9 42.5 34.8 0.00 0.0101781 78.7
2020-09-16 18:55:00 86.9 16.8 36.5 86.9 86.9 5.3 7.8 6.4 1.6 25.2 0.00 0.0075321 78.6
2020-09-16 19:00:00 86.6 17.0 36.6 86.6 86.6 3.8 7.6 5.2 342.5 21.5 0.00 0.0059985 78.6
2020-09-16 19:05:00 86.1 17.5 37.0 86.1 86.1 3.5 5.1 3.2 0.3 22.0 0.00 0.0039621 78.5
2020-09-16 19:10:00 85.9 17.7 37.0 85.9 85.9 2.6 4.9 3.5 328.2 16.1 0.00 0.0022930 78.5
2020-09-16 19:15:00 85.5 17.8 36.9 85.5 85.5 4.6 6.5 3.7 10.7 17.4 0.00 0.0010617 78.4
2020-09-16 19:20:00 85.3 17.0 35.5 85.3 85.3 2.6 5.5 3.5 0.1 17.4 0.00 0.0005733 78.4
2020-09-16 19:25:00 85.2 16.7 35.0 85.2 85.2 3.3 4.4 3.3 323.2 16.5 0.00 0.0002907 78.3
2020-09-16 19:30:00 84.8 16.5 34.3 84.8 84.8 2.6 3.5 3.0 16.8 20.7 0.00 0.0001050 78.2
2020-09-16 19:35:00 84.5 16.3 33.8 84.5 84.5 4.0 4.2 3.2 21.1 17.8 0.00 0.0000585 78.2
2020-09-16 19:40:00 83.9 16.5 33.7 83.9 83.9 4.2 4.2 2.7 48.3 29.1 0.00 0.0000384 78.1
2020-09-16 19:45:00 83.5 17.0 34.0 83.5 83.5 3.5 5.6 3.3 21.0 27.0 0.00 0.0000081 78.0
2020-09-16 19:50:00 83.0 17.1 33.9 83.0 83.0 2.4 3.3 2.6 49.3 32.9 0.00 0.0000040 77.9
2020-09-16 19:55:00 82.9 17.1 33.7 82.9 82.9 4.2 4.2 2.7 23.1 16.0 0.00 0.0000000 77.8
2020-09-16 20:00:00 82.3 16.8 32.8 82.3 82.3 4.4 4.9 3.5 31.4 23.6 0.00 0.0000000 77.7
2020-09-16 20:05:00 82.2 16.9 32.9 82.2 82.2 4.0 5.3 3.7 21.4 28.1 0.00 0.0000000 77.6
2020-09-16 20:10:00 82.0 16.6 32.2 82.0 82.0 3.7 7.2 4.7 36.4 33.0 0.00 0.0000000 77.5
2020-09-16 20:15:00 81.6 16.8 32.3 81.6 81.6 4.7 6.3 4.3 17.7 29.0 0.00 0.0000000 77.4
2020-09-16 20:20:00 81.4 16.3 31.2 81.4 81.4 5.5 8.1 5.2 51.5 43.6 0.00 0.0000000 77.3
2020-09-16 20:25:00 81.0 16.6 31.5 81.0 81.0 4.2 5.5 3.9 46.5 60.1 0.00 0.0000000 77.3
2020-09-16 20:30:00 80.4 16.8 31.3 80.4 80.4 4.4 5.6 3.5 46.8 52.1 0.00 0.0000000 77.2
2020-09-16 20:35:00 79.9 17.5 31.9 79.9 79.9 2.2 6.3 3.2 13.1 32.9 0.00 0.0000000 77.1
2020-09-16 20:40:00 79.1 17.3 31.0 79.1 79.1 3.5 3.8 2.7 49.6 44.2 0.00 0.0000000 77.0
2020-09-16 20:45:00 78.8 16.9 30.1 78.8 78.8 3.0 4.4 2.5 36.8 34.8 0.00 0.0000000 76.9
2020-09-16 20:50:00 79.3 16.8 30.5 79.3 79.3 1.7 4.6 2.9 57.2 56.3 0.00 0.0000000 76.8
2020-09-16 20:55:00 78.9 17.2 30.7 78.9 78.9 1.7 3.0 2.1 64.3 54.7 0.00 0.0000020 76.7
2020-09-16 21:00:00 78.2 17.9 31.0 78.2 78.2 0.0 2.1 1.4 75.0 72.1 0.00 0.0000020 76.6
2020-09-16 21:05:00 76.5 21.5 34.3 76.5 76.5 1.7 1.7 0.7 238.9 307.4 0.00 0.0000343 76.5
2020-09-16 21:10:00 74.0 24.5 35.4 74.0 74.0 0.0 2.8 1.9 106.7 199.9 0.00 0.0000525 76.4
2020-09-16 21:15:00 73.5 24.0 34.6 73.5 73.5 0.0 1.2 0.2 340.2 69.6 0.00 0.0000222 76.4
2020-09-16 21:20:00 72.1 26.9 36.2 72.1 72.1 1.3 5.1 2.6 279.6 238.8 0.00 0.0000242 76.3
2020-09-16 21:25:00 71.8 28.3 37.2 71.8 71.8 1.0 2.8 1.1 302.4 222.1 0.00 0.0000182 76.2
2020-09-16 21:30:00 71.2 26.7 35.2 71.2 71.2 2.2 3.3 1.8 189.7 203.9 0.00 0.0000101 76.0
2020-09-16 21:35:00 70.7 29.0 36.9 70.7 70.7 2.1 2.6 2.0 205.4 197.9 0.00 0.0000081 76.0
2020-09-16 21:40:00 71.4 29.7 38.1 71.4 71.4 2.4 4.6 3.2 220.9 212.7 0.00 0.0000000 75.9
2020-09-16 21:45:00 71.0 31.3 39.1 71.0 71.0 1.2 3.1 2.3 242.7 250.5 0.00 0.0000000 75.8
2020-09-16 21:50:00 70.3 31.1 38.3 70.3 70.3 1.0 1.0 0.2 238.9 234.3 0.00 0.0000000 75.7
2020-09-16 21:55:00 69.7 35.3 41.1 69.7 69.7 1.3 2.1 1.5 214.5 226.3 0.00 0.0000000 75.6
2020-09-16 22:00:00 69.2 35.4 40.7 69.2 69.2 0.0 1.3 0.7 255.4 261.5 0.00 0.0000000 75.6
2020-09-16 22:05:00 68.6 36.6 41.0 68.6 68.6 2.2 2.8 0.8 279.9 246.6 0.00 0.0000000 75.5
2020-09-16 22:10:00 68.7 38.4 42.4 68.7 68.7 0.0 1.9 0.3 208.3 250.7 0.00 0.0000000 75.3
2020-09-16 22:15:00 68.4 41.2 43.9 68.4 68.4 2.2 2.2 0.5 211.5 209.6 0.00 0.0000020 75.3
2020-09-16 22:20:00 67.9 41.2 43.5 67.9 67.9 2.6 2.6 2.0 198.5 232.1 0.00 0.0000000 75.2
2020-09-16 22:25:00 67.7 40.5 42.8 67.7 67.7 2.6 2.8 2.4 239.5 230.2 0.00 0.0000020 75.1
2020-09-16 22:30:00 67.2 41.4 43.0 67.2 67.2 0.0 2.6 1.5 223.3 204.9 0.00 0.0000000 75.0
2020-09-16 22:35:00 67.2 41.5 43.1 67.2 67.2 3.1 3.1 2.0 240.9 239.6 0.00 0.0000040 74.9
2020-09-16 22:40:00 67.1 41.2 42.7 67.1 67.1 3.0 5.1 3.2 241.6 243.9 0.00 0.0000000 74.9
2020-09-16 22:45:00 66.9 41.8 42.9 66.9 66.9 0.0 3.1 1.7 330.7 220.8 0.00 0.0000000 74.8
2020-09-16 22:50:00 66.7 42.2 43.0 66.7 66.7 0.0 1.3 0.4 252.7 287.0 0.00 0.0000020 74.7
2020-09-16 22:55:00 66.0 44.4 43.7 66.0 66.0 2.6 2.8 1.9 253.9 249.8 0.00 0.0000020 74.6
2020-09-16 23:00:00 66.6 40.4 41.8 66.6 66.6 3.3 3.3 2.8 220.2 242.0 0.00 0.0000020 74.6
2020-09-16 23:05:00 67.0 41.2 42.6 67.0 67.0 0.0 3.3 1.5 287.4 265.2 0.00 0.0000040 74.5
2020-09-16 23:10:00 67.4 39.3 41.8 67.4 67.4 3.0 4.6 3.1 252.8 266.7 0.00 0.0000020 74.4
2020-09-16 23:15:00 67.4 39.4 41.8 67.4 67.4 4.6 4.6 3.4 244.0 257.4 0.00 0.0000020 74.4
2020-09-16 23:20:00 67.3 38.2 41.0 67.3 67.3 4.0 4.7 4.2 257.9 256.6 0.00 0.0000000 74.3
2020-09-16 23:25:00 67.6 38.5 41.4 67.6 67.6 3.8 4.4 3.9 255.6 257.0 0.00 0.0000020 74.2
2020-09-16 23:30:00 66.8 39.8 41.6 66.8 66.8 3.0 4.6 3.1 240.5 250.2 0.00 0.0000121 74.1
2020-09-16 23:35:00 66.8 38.2 40.5 66.8 66.8 0.0 4.7 1.9 228.8 281.1 0.00 0.0000000 74.0
2020-09-16 23:40:00 66.8 39.0 41.0 66.8 66.8 0.0 1.9 0.3 338.0 103.2 0.00 0.0000020 74.0
2020-09-16 23:45:00 66.5 38.9 40.7 66.5 66.5 0.0 2.4 1.3 154.5 183.7 0.00 0.0000121 73.9
2020-09-16 23:50:00 67.0 37.2 40.0 67.0 67.0 2.1 3.0 1.8 268.3 252.6 0.00 0.0000081 73.9
2020-09-16 23:55:00 66.3 41.1 41.9 66.3 66.3 1.5 3.7 1.8 196.4 237.6 0.00 0.0000222 73.8
2020-09-17 00:00:00 66.2 39.0 40.5 66.2 66.2 2.1 5.5 2.5 306.4 192.9 0.00 0.0000061 73.7

Data is courtesy of the NM Climate Center. DO NOT USE IN LEGAL PROCEEDINGS.